Time;durP1;ratioP1;P1;durP2;ratioP2;P2;SDS_P1;SDS_P2;PMS_P1;PMS_P2;Temp;Humidity;BMP_temperature;BMP_pressure;BME280_temperature;BME280_humidity;BME280_pressure;Samples;Min_cycle;Max_cycle;Signal;HPM_P1;HPM_P2
2023/05/09 00:01:49;;;;;;;8.58;7.75;;;18.60;91.90;;;;;;932757;149;27394;-76
2023/05/09 00:04:15;;;;;;;8.00;7.37;;;18.60;91.90;;;;;;927626;152;27442;-76
2023/05/09 00:06:42;;;;;;;8.65;7.85;;;18.60;91.90;;;;;;926335;152;27419;-76
2023/05/09 00:09:08;;;;;;;8.28;7.58;;;18.60;92.00;;;;;;927229;152;27362;-76
2023/05/09 00:11:35;;;;;;;9.98;8.10;;;18.60;92.00;;;;;;927375;152;27482;-76
2023/05/09 00:14:02;;;;;;;9.33;8.43;;;18.60;92.00;;;;;;927455;151;27320;-76
2023/05/09 00:16:28;;;;;;;8.55;7.85;;;18.60;92.00;;;;;;917903;153;27316;-76
2023/05/09 00:18:56;;;;;;;9.43;8.50;;;18.60;92.00;;;;;;934361;149;27310;-76
2023/05/09 00:21:21;;;;;;;8.68;7.87;;;18.60;92.10;;;;;;919353;152;27391;-76
2023/05/09 00:23:48;;;;;;;9.00;8.13;;;18.60;92.10;;;;;;913774;152;27400;-76
2023/05/09 00:26:15;;;;;;;8.65;7.95;;;18.60;92.10;;;;;;917664;152;27331;-76
2023/05/09 00:28:41;;;;;;;9.48;8.68;;;18.60;92.10;;;;;;917786;152;27483;-76
2023/05/09 00:31:08;;;;;;;9.55;8.75;;;18.60;92.30;;;;;;912088;152;27367;-76
2023/05/09 00:33:34;;;;;;;9.08;8.28;;;18.60;92.30;;;;;;918027;152;27399;-76
2023/05/09 00:36:01;;;;;;;9.30;8.33;;;18.60;92.40;;;;;;912154;153;27431;-76
2023/05/09 00:38:27;;;;;;;10.00;9.13;;;18.60;92.70;;;;;;934901;149;27426;-76
2023/05/09 00:40:54;;;;;;;9.95;9.05;;;18.60;93.00;;;;;;934623;149;27407;-76
2023/05/09 00:43:21;;;;;;;10.23;9.33;;;18.60;93.20;;;;;;911903;153;27486;-76
2023/05/09 00:45:47;;;;;;;9.48;8.68;;;18.50;93.50;;;;;;934359;149;27451;-76
2023/05/09 00:48:14;;;;;;;10.58;9.65;;;18.50;93.70;;;;;;911281;153;27352;-77
2023/05/09 00:50:41;;;;;;;10.30;9.40;;;18.50;93.90;;;;;;929567;150;27447;-77
2023/05/09 00:53:07;;;;;;;10.18;9.30;;;18.40;94.10;;;;;;928667;150;27447;-76
2023/05/09 00:55:34;;;;;;;10.63;9.60;;;18.40;94.30;;;;;;934633;149;27460;-76
2023/05/09 00:58:00;;;;;;;9.50;8.80;;;18.40;94.60;;;;;;935445;149;27342;-76
2023/05/09 01:00:27;;;;;;;10.50;9.50;;;18.30;95.00;;;;;;918547;152;27386;-76
2023/05/09 01:02:53;;;;;;;9.23;8.43;;;18.30;95.20;;;;;;934046;149;27319;-76
2023/05/09 01:05:20;;;;;;;10.35;9.35;;;18.30;95.40;;;;;;935090;149;27353;-76
2023/05/09 01:07:50;;;;;;;10.85;9.93;;;18.30;95.50;;;;;;911860;152;27390;-76
2023/05/09 01:10:25;;;;;;;9.83;8.93;;;18.20;95.60;;;;;;916401;152;27379;-76
2023/05/09 01:13:09;;;;;;;9.80;9.00;;;18.20;95.80;;;;;;922287;152;27310;-76
2023/05/09 01:15:36;;;;;;;10.75;9.65;;;18.20;95.80;;;;;;890397;157;27515;-76
2023/05/09 01:18:12;;;;;;;10.43;9.53;;;18.20;95.90;;;;;;881417;158;27456;-76
2023/05/09 01:20:38;;;;;;;10.18;9.18;;;18.10;95.80;;;;;;910198;150;27416;-76
2023/05/09 01:23:07;;;;;;;10.48;9.48;;;18.10;95.90;;;;;;927722;150;27339;-76
2023/05/09 01:25:42;;;;;;;10.68;9.78;;;18.10;96.00;;;;;;933824;149;27428;-76
2023/05/09 01:28:25;;;;;;;11.45;9.98;;;18.10;96.20;;;;;;913095;152;27386;-76
2023/05/09 01:30:50;;;;;;;12.05;10.85;;;18.10;96.30;;;;;;947575;148;27299;-76
2023/05/09 01:33:17;;;;;;;10.63;9.63;;;18.10;96.40;;;;;;947078;148;27367;-76
2023/05/09 01:35:44;;;;;;;9.75;9.03;;;18.00;96.50;;;;;;930918;151;27491;-76
2023/05/09 01:38:10;;;;;;;10.68;9.78;;;18.00;96.70;;;;;;930463;151;27450;-76
2023/05/09 01:40:37;;;;;;;11.33;10.32;;;18.00;96.70;;;;;;929047;151;27342;-76
2023/05/09 01:43:03;;;;;;;10.75;9.85;;;18.00;96.80;;;;;;946580;149;27343;-76
2023/05/09 01:45:30;;;;;;;10.23;9.33;;;18.00;96.90;;;;;;946385;149;27351;-76
2023/05/09 01:47:57;;;;;;;10.60;9.70;;;18.00;97.00;;;;;;946931;148;27356;-77
2023/05/09 01:50:23;;;;;;;10.88;9.88;;;18.00;97.10;;;;;;947073;148;27381;-76
2023/05/09 01:52:50;;;;;;;10.72;9.73;;;18.00;97.10;;;;;;947696;148;27441;-76
2023/05/09 01:55:16;;;;;;;10.70;9.80;;;18.00;97.20;;;;;;947361;148;27457;-76
2023/05/09 01:57:43;;;;;;;11.05;10.05;;;18.00;97.20;;;;;;929214;151;27366;-77
2023/05/09 02:00:11;;;;;;;11.48;10.48;;;18.00;97.30;;;;;;946708;148;27320;-76
2023/05/09 02:02:36;;;;;;;10.43;9.43;;;17.90;97.40;;;;;;930386;151;27373;-76
2023/05/09 02:05:03;;;;;;;10.43;9.53;;;17.90;97.40;;;;;;926454;151;27657;-76
2023/05/09 02:07:29;;;;;;;11.05;10.03;;;17.90;97.40;;;;;;948144;151;27451;-76
2023/05/09 02:09:56;;;;;;;10.98;9.98;;;17.90;97.50;;;;;;947185;148;27462;-76
2023/05/09 02:12:25;;;;;;;10.98;10.03;;;17.90;97.50;;;;;;947953;151;27478;-76
2023/05/09 02:14:52;;;;;;;11.70;10.50;;;17.90;97.50;;;;;;948194;148;27337;-76
2023/05/09 02:17:20;;;;;;;11.43;10.32;;;17.90;97.50;;;;;;947865;151;27349;-76
2023/05/09 02:19:45;;;;;;;12.45;11.35;;;17.80;97.50;;;;;;948162;151;27659;-76
2023/05/09 02:22:12;;;;;;;10.50;9.50;;;17.80;97.50;;;;;;947919;151;27336;-76
2023/05/09 02:24:38;;;;;;;10.58;9.68;;;17.80;97.50;;;;;;946894;151;27330;-76
2023/05/09 02:27:06;;;;;;;12.00;10.80;;;17.80;97.50;;;;;;947724;151;27338;-76
2023/05/09 02:29:38;;;;;;;10.82;9.75;;;17.70;97.50;;;;;;947558;151;27384;-76
2023/05/09 02:31:58;;;;;;;10.63;9.73;;;17.70;97.50;;;;;;941969;149;27336;-76
2023/05/09 02:34:25;;;;;;;10.50;9.60;;;17.70;97.60;;;;;;932079;149;27313;-76
2023/05/09 02:36:51;;;;;;;10.95;9.85;;;17.60;97.50;;;;;;927356;152;27371;-76
2023/05/09 02:39:18;;;;;;;11.00;10.00;;;17.60;97.50;;;;;;927198;152;27431;-76
2023/05/09 02:41:44;;;;;;;11.63;10.63;;;17.50;97.50;;;;;;912610;152;27440;-76
2023/05/09 02:44:11;;;;;;;10.35;9.45;;;17.50;97.60;;;;;;933716;149;27430;-76
2023/05/09 02:46:38;;;;;;;10.53;9.63;;;17.40;97.90;;;;;;912103;152;27500;-76
2023/05/09 02:49:04;;;;;;;11.75;10.80;;;17.40;97.60;;;;;;935029;149;27279;-76
2023/05/09 02:51:31;;;;;;;11.38;10.30;;;17.30;97.70;;;;;;934145;149;27459;-76
2023/05/09 02:53:57;;;;;;;11.10;10.13;;;17.30;97.80;;;;;;935080;149;27450;-76
2023/05/09 02:56:24;;;;;;;11.40;10.30;;;17.20;97.80;;;;;;934478;149;27385;-76
2023/05/09 02:58:51;;;;;;;10.58;9.58;;;17.10;97.90;;;;;;934879;149;27296;-76
2023/05/09 03:01:20;;;;;;;11.25;10.35;;;17.10;98.00;;;;;;935183;149;27376;-76
2023/05/09 03:03:46;;;;;;;11.35;10.35;;;17.00;98.10;;;;;;934926;149;27381;-76
2023/05/09 03:06:13;;;;;;;11.43;10.40;;;16.90;98.30;;;;;;927495;150;27416;-76
2023/05/09 03:08:39;;;;;;;11.75;10.70;;;16.90;98.50;;;;;;918916;152;27452;-76
2023/05/09 03:11:06;;;;;;;11.57;10.55;;;16.80;98.60;;;;;;928606;150;27311;-76
2023/05/09 03:13:33;;;;;;;12.43;11.22;;;16.80;98.80;;;;;;934772;149;27381;-76
2023/05/09 03:15:59;;;;;;;11.40;10.32;;;16.80;98.90;;;;;;912848;153;27331;-76
2023/05/09 03:18:26;;;;;;;11.60;10.43;;;16.70;99.10;;;;;;915820;152;27431;-76
2023/05/09 03:20:53;;;;;;;11.38;10.38;;;16.70;99.20;;;;;;926428;151;27380;-76
2023/05/09 03:23:19;;;;;;;11.35;10.35;;;16.60;99.30;;;;;;934808;149;27365;-76
2023/05/09 03:25:46;;;;;;;11.30;10.20;;;16.60;99.70;;;;;;913282;152;27356;-76
2023/05/09 03:28:12;;;;;;;12.35;11.20;;;16.60;99.60;;;;;;919123;152;27363;-76
2023/05/09 03:30:39;;;;;;;10.80;9.83;;;16.50;99.70;;;;;;920689;151;27493;-76
2023/05/09 03:33:05;;;;;;;11.63;10.43;;;16.50;99.80;;;;;;931336;151;27396;-76
2023/05/09 03:35:32;;;;;;;11.80;10.75;;;16.50;99.90;;;;;;931749;151;27355;-76
2023/05/09 03:37:59;;;;;;;11.45;10.38;;;16.40;99.90;;;;;;947565;148;27861;-76
2023/05/09 03:40:25;;;;;;;11.35;10.35;;;16.40;99.90;;;;;;945979;148;27346;-76
2023/05/09 03:42:52;;;;;;;11.50;10.60;;;16.40;99.90;;;;;;950430;148;27314;-76
2023/05/09 03:45:18;;;;;;;11.38;10.38;;;16.40;99.90;;;;;;948083;148;27342;-76
2023/05/09 03:47:45;;;;;;;11.78;10.58;;;16.40;99.90;;;;;;947591;149;27363;-76
2023/05/09 03:50:12;;;;;;;12.15;10.72;;;16.40;99.90;;;;;;947215;148;27326;-76
2023/05/09 03:52:38;;;;;;;11.93;10.82;;;16.40;99.90;;;;;;927503;152;27439;-76
2023/05/09 03:55:05;;;;;;;12.50;11.50;;;16.40;99.90;;;;;;946604;151;27358;-75
2023/05/09 03:57:31;;;;;;;12.20;10.90;;;16.40;99.90;;;;;;946465;150;27391;-76
2023/05/09 03:59:58;;;;;;;12.03;10.95;;;16.50;99.90;;;;;;946337;151;27261;-76
2023/05/09 04:02:25;;;;;;;11.57;10.48;;;16.50;99.90;;;;;;946854;148;27417;-76
2023/05/09 04:04:51;;;;;;;11.20;10.20;;;16.50;99.90;;;;;;948358;148;27335;-76
2023/05/09 04:07:18;;;;;;;11.78;10.60;;;16.60;99.90;;;;;;946147;151;27382;-76
2023/05/09 04:09:44;;;;;;;12.13;11.08;;;16.60;99.90;;;;;;945930;151;27481;-76
2023/05/09 04:12:11;;;;;;;11.50;10.50;;;16.60;99.90;;;;;;930231;151;27421;-76
2023/05/09 04:14:37;;;;;;;11.83;10.82;;;16.70;99.90;;;;;;940637;149;27399;-75
2023/05/09 04:17:04;;;;;;;11.83;10.78;;;16.70;99.90;;;;;;934720;151;27344;-76
2023/05/09 04:19:31;;;;;;;11.18;10.08;;;16.70;99.90;;;;;;946493;151;27376;-76
2023/05/09 04:21:57;;;;;;;11.33;10.38;;;16.70;99.90;;;;;;946839;148;27296;-76
2023/05/09 04:24:24;;;;;;;11.20;10.30;;;16.70;99.90;;;;;;946495;148;27367;-76
2023/05/09 04:26:50;;;;;;;11.48;10.48;;;16.80;99.90;;;;;;946112;151;27411;-76
2023/05/09 04:29:17;;;;;;;10.58;9.68;;;16.80;99.90;;;;;;947225;148;27449;-76
2023/05/09 04:31:44;;;;;;;10.82;9.83;;;16.80;99.90;;;;;;942211;148;27402;-76
2023/05/09 04:34:10;;;;;;;12.03;10.98;;;16.80;99.90;;;;;;931821;149;27457;-76
2023/05/09 04:36:37;;;;;;;10.72;9.70;;;16.80;99.90;;;;;;935690;149;27322;-76
2023/05/09 04:39:04;;;;;;;10.55;9.55;;;16.80;99.90;;;;;;922130;152;27452;-76
2023/05/09 04:41:30;;;;;;;10.72;9.73;;;16.90;99.90;;;;;;934970;149;27436;-76
2023/05/09 04:43:57;;;;;;;11.15;10.15;;;16.90;99.90;;;;;;918229;152;27375;-76
2023/05/09 04:46:23;;;;;;;11.88;10.88;;;16.90;99.90;;;;;;934824;149;27363;-76
2023/05/09 04:48:50;;;;;;;11.70;10.60;;;16.90;99.90;;;;;;935092;149;27410;-76
2023/05/09 04:51:16;;;;;;;11.65;10.65;;;17.00;99.90;;;;;;918559;152;27392;-76
2023/05/09 04:53:43;;;;;;;12.03;10.93;;;17.10;99.90;;;;;;934259;149;27370;-76
2023/05/09 04:56:10;;;;;;;11.25;10.25;;;17.00;99.90;;;;;;934560;149;27355;-76
2023/05/09 04:58:39;;;;;;;11.18;10.18;;;17.10;99.90;;;;;;934749;150;27368;-76
2023/05/09 05:01:03;;;;;;;11.57;10.50;;;17.20;99.90;;;;;;933749;149;27363;-76
2023/05/09 05:03:29;;;;;;;11.43;10.32;;;17.20;99.90;;;;;;933081;150;27502;-76
2023/05/09 05:05:56;;;;;;;11.63;10.63;;;17.30;99.90;;;;;;933317;151;27409;-76
2023/05/09 05:08:23;;;;;;;12.13;10.93;;;17.40;99.90;;;;;;935032;149;27350;-76
2023/05/09 05:10:49;;;;;;;12.15;11.05;;;17.40;99.90;;;;;;912669;153;27393;-76
2023/05/09 05:13:20;;;;;;;12.07;10.98;;;17.50;99.90;;;;;;926288;151;27385;-76
2023/05/09 05:15:45;;;;;;;11.35;10.35;;;17.60;99.90;;;;;;911539;153;27489;-76
2023/05/09 05:18:11;;;;;;;11.83;10.23;;;17.60;99.90;;;;;;917972;152;27326;-76
2023/05/09 05:20:41;;;;;;;11.80;10.68;;;17.70;99.90;;;;;;934345;150;27361;-76
2023/05/09 05:23:08;;;;;;;12.03;10.88;;;17.70;99.90;;;;;;917993;152;27412;-76
2023/05/09 05:25:34;;;;;;;11.88;10.70;;;17.80;99.90;;;;;;918944;152;27397;-76
2023/05/09 05:28:01;;;;;;;11.70;10.60;;;17.80;99.90;;;;;;934830;149;27334;-76
2023/05/09 05:30:27;;;;;;;11.85;10.65;;;17.90;99.90;;;;;;932657;149;27340;-76
2023/05/09 05:32:54;;;;;;;12.40;11.20;;;17.90;99.90;;;;;;925368;152;27431;-76
2023/05/09 05:35:22;;;;;;;11.18;10.15;;;17.90;99.90;;;;;;918257;155;27307;-76
2023/05/09 05:37:47;;;;;;;11.88;10.88;;;17.90;99.90;;;;;;938424;151;27399;-76
2023/05/09 05:40:14;;;;;;;10.95;9.90;;;18.00;99.90;;;;;;925217;154;27324;-76
2023/05/09 05:42:40;;;;;;;11.48;10.38;;;18.00;99.90;;;;;;927569;152;27349;-76
2023/05/09 05:45:07;;;;;;;11.70;10.72;;;18.00;99.90;;;;;;934434;153;27351;-76
2023/05/09 05:47:34;;;;;;;11.25;10.25;;;18.10;99.90;;;;;;934801;153;27683;-76
2023/05/09 05:50:00;;;;;;;11.60;10.50;;;18.10;99.90;;;;;;921284;153;27370;-76
2023/05/09 05:52:27;;;;;;;11.48;10.48;;;18.10;99.90;;;;;;912841;154;27418;-75
2023/05/09 05:54:53;;;;;;;11.55;10.53;;;18.20;99.90;;;;;;938461;151;27376;-76
2023/05/09 05:57:20;;;;;;;10.70;9.85;;;18.30;99.90;;;;;;926214;152;27417;-76
2023/05/09 05:59:47;;;;;;;11.08;10.08;;;18.30;99.90;;;;;;920619;152;27335;-76
2023/05/09 06:02:13;;;;;;;11.12;10.03;;;18.40;99.90;;;;;;922037;153;27612;-76
2023/05/09 06:04:40;;;;;;;11.73;10.68;;;18.40;99.90;;;;;;920896;153;27398;-76
2023/05/09 06:07:06;;;;;;;11.03;10.05;;;18.50;99.80;;;;;;924525;155;27328;-76
2023/05/09 06:09:33;;;;;;;10.43;9.38;;;18.50;99.60;;;;;;937522;150;27341;-76
2023/05/09 06:11:59;;;;;;;9.83;9.08;;;18.60;99.60;;;;;;937677;152;27702;-76
2023/05/09 06:14:26;;;;;;;10.43;9.43;;;18.60;99.70;;;;;;937492;151;27450;-76
2023/05/09 06:16:53;;;;;;;10.90;9.95;;;18.70;99.90;;;;;;938161;151;27371;-76
2023/05/09 06:19:20;;;;;;;9.95;8.98;;;18.80;99.90;;;;;;938407;151;27318;-76
2023/05/09 06:21:46;;;;;;;10.98;9.98;;;18.90;99.90;;;;;;913818;153;27284;-76
2023/05/09 06:24:12;;;;;;;9.88;9.00;;;19.20;99.90;;;;;;938039;152;27385;-77
2023/05/09 06:26:39;;;;;;;10.20;9.20;;;19.40;99.90;;;;;;938835;152;27368;-77
2023/05/09 06:29:06;;;;;;;9.88;9.08;;;19.80;99.90;;;;;;937960;152;27281;-76
2023/05/09 06:31:37;;;;;;;9.15;8.40;;;20.10;99.90;;;;;;939102;152;27419;-76
2023/05/09 06:33:59;;;;;;;10.68;9.50;;;20.40;99.90;;;;;;934519;149;27393;-76
2023/05/09 06:36:25;;;;;;;9.58;8.78;;;20.70;99.10;;;;;;925621;151;27365;-76
2023/05/09 06:38:52;;;;;;;9.03;8.25;;;21.00;98.00;;;;;;934316;149;27313;-76
2023/05/09 06:41:20;;;;;;;9.83;8.98;;;21.20;96.80;;;;;;918016;152;27336;-76
2023/05/09 06:43:45;;;;;;;10.03;9.08;;;21.40;95.90;;;;;;919774;152;27348;-76
2023/05/09 06:46:12;;;;;;;8.90;8.18;;;21.50;95.50;;;;;;918198;152;27392;-76
2023/05/09 06:48:38;;;;;;;10.10;8.78;;;21.60;95.50;;;;;;928051;150;27489;-76
2023/05/09 06:51:05;;;;;;;9.03;8.25;;;21.90;96.50;;;;;;933173;149;27361;-76
2023/05/09 06:53:31;;;;;;;9.35;8.45;;;22.10;96.40;;;;;;912474;153;27342;-76
2023/05/09 06:55:58;;;;;;;9.40;8.50;;;22.50;95.60;;;;;;934875;149;27409;-76
2023/05/09 06:58:26;;;;;;;8.05;7.35;;;22.80;94.30;;;;;;911447;152;27480;-76
2023/05/09 07:00:51;;;;;;;8.75;7.95;;;23.10;92.80;;;;;;934540;150;27335;-76
2023/05/09 07:03:18;;;;;;;9.30;8.43;;;23.30;91.40;;;;;;934769;149;27319;-76
2023/05/09 07:05:44;;;;;;;8.00;7.40;;;23.50;90.60;;;;;;935472;149;27275;-76
2023/05/09 07:08:11;;;;;;;8.00;7.40;;;23.70;90.30;;;;;;919198;152;27815;-76
2023/05/09 07:10:38;;;;;;;8.38;7.33;;;24.10;89.60;;;;;;911328;152;27421;-76
2023/05/09 07:13:04;;;;;;;7.80;7.20;;;24.30;88.70;;;;;;934514;149;27404;-76
2023/05/09 07:15:31;;;;;;;8.10;7.40;;;24.60;86.00;;;;;;934778;149;27283;-76
2023/05/09 07:17:57;;;;;;;7.97;7.37;;;24.90;83.20;;;;;;919380;152;27791;-76
2023/05/09 07:20:24;;;;;;;11.28;8.20;;;25.10;80.70;;;;;;922987;152;27377;-76
2023/05/09 07:22:51;;;;;;;7.97;7.37;;;25.20;78.60;;;;;;911496;153;27335;-76
2023/05/09 07:25:17;;;;;;;8.00;7.30;;;25.30;77.80;;;;;;935440;149;27311;-76
2023/05/09 07:27:44;;;;;;;8.05;7.33;;;25.50;78.20;;;;;;923991;151;27406;-76
2023/05/09 07:30:10;;;;;;;8.70;7.35;;;25.70;78.60;;;;;;912170;153;27408;-76
2023/05/09 07:32:37;;;;;;;6.92;6.40;;;26.10;78.50;;;;;;917099;153;27384;-76
2023/05/09 07:35:04;;;;;;;7.95;7.35;;;26.40;78.50;;;;;;945944;148;27329;-76
2023/05/09 07:37:30;;;;;;;8.05;7.25;;;26.70;76.20;;;;;;926678;152;27345;-76
2023/05/09 07:39:57;;;;;;;7.53;6.92;;;27.10;73.80;;;;;;946493;150;27334;-76
2023/05/09 07:42:23;;;;;;;7.42;6.92;;;27.30;71.90;;;;;;945862;149;27482;-76
2023/05/09 07:44:50;;;;;;;7.85;7.05;;;27.30;70.70;;;;;;945356;148;27311;-76
2023/05/09 07:47:16;;;;;;;7.10;6.60;;;27.50;70.20;;;;;;945797;149;27312;-76
2023/05/09 07:49:45;;;;;;;7.30;6.70;;;27.60;70.50;;;;;;946205;151;27455;-76
2023/05/09 07:52:10;;;;;;;7.55;6.85;;;27.90;71.30;;;;;;944415;148;27438;-76
2023/05/09 07:54:36;;;;;;;6.97;6.37;;;28.40;72.70;;;;;;945995;148;26598;-76
2023/05/09 07:57:03;;;;;;;7.55;6.85;;;28.80;71.00;;;;;;944965;150;27386;-76
2023/05/09 07:59:29;;;;;;;7.00;6.50;;;29.20;68.50;;;;;;945956;148;27312;-76
2023/05/09 08:01:56;;;;;;;7.58;6.87;;;29.40;65.40;;;;;;946122;148;27384;-76
2023/05/09 08:04:23;;;;;;;7.40;6.85;;;29.40;63.10;;;;;;945743;150;27846;-76
2023/05/09 08:06:49;;;;;;;7.35;6.75;;;29.30;61.40;;;;;;945688;151;27331;-76
2023/05/09 08:09:17;;;;;;;8.28;7.58;;;29.00;60.50;;;;;;946575;151;27440;-76
2023/05/09 08:11:42;;;;;;;7.08;6.55;;;28.80;60.30;;;;;;946531;151;27316;-76
2023/05/09 08:14:09;;;;;;;8.00;7.40;;;28.50;60.50;;;;;;946373;148;27360;-76
2023/05/09 08:16:36;;;;;;;7.17;6.58;;;28.20;60.20;;;;;;925660;151;27374;-76
2023/05/09 08:19:02;;;;;;;8.03;7.33;;;28.00;60.30;;;;;;930366;151;27414;-77
2023/05/09 08:21:29;;;;;;;7.35;6.75;;;27.70;60.30;;;;;;943645;151;27258;-76
2023/05/09 08:23:55;;;;;;;7.70;7.10;;;27.50;60.70;;;;;;942389;151;27374;-76
2023/05/09 08:26:22;;;;;;;7.42;6.83;;;27.40;61.30;;;;;;942130;151;27889;-76
2023/05/09 08:28:48;;;;;;;7.58;6.97;;;27.10;61.20;;;;;;943255;149;27276;-76
2023/05/09 08:31:15;;;;;;;7.72;7.12;;;27.00;61.30;;;;;;943645;151;27391;-76
2023/05/09 08:33:42;;;;;;;8.40;7.53;;;26.90;61.30;;;;;;942477;151;27364;-76
2023/05/09 08:36:08;;;;;;;7.53;6.92;;;26.70;61.40;;;;;;922285;152;27518;-76
2023/05/09 08:38:36;;;;;;;8.00;7.30;;;26.60;61.60;;;;;;921783;152;27419;-76
2023/05/09 08:41:02;;;;;;;7.78;7.10;;;26.50;61.80;;;;;;921802;152;27967;-76
2023/05/09 08:43:28;;;;;;;8.00;7.17;;;26.40;62.20;;;;;;921021;152;27366;-76
2023/05/09 08:45:56;;;;;;;7.72;7.03;;;26.40;62.70;;;;;;921854;152;27408;-76
2023/05/09 08:48:21;;;;;;;7.45;6.75;;;26.40;62.80;;;;;;920614;152;27302;-76
2023/05/09 08:50:48;;;;;;;7.05;6.55;;;26.50;62.30;;;;;;921352;152;27367;-76
2023/05/09 08:53:15;;;;;;;7.58;6.97;;;26.60;63.20;;;;;;921106;152;27415;-76
2023/05/09 08:55:41;;;;;;;6.95;6.40;;;26.60;62.90;;;;;;921325;152;27400;-76
2023/05/09 08:58:08;;;;;;;9.55;6.83;;;26.70;62.80;;;;;;923926;153;27341;-76
2023/05/09 09:00:34;;;;;;;6.37;5.87;;;26.80;62.60;;;;;;907191;155;27390;-76
2023/05/09 09:03:01;;;;;;;7.62;6.80;;;26.90;62.50;;;;;;924613;151;27360;-76
2023/05/09 09:05:27;;;;;;;6.65;6.05;;;27.00;61.90;;;;;;925805;151;27397;-76
2023/05/09 09:07:54;;;;;;;8.50;6.60;;;27.00;61.50;;;;;;923526;151;27472;-76
2023/05/09 09:10:24;;;;;;;8.10;7.30;;;27.00;61.30;;;;;;923798;151;27482;-76
2023/05/09 09:12:47;;;;;;;7.30;6.60;;;26.90;61.00;;;;;;920698;153;27367;-76
2023/05/09 09:15:14;;;;;;;7.87;7.17;;;26.90;60.60;;;;;;923478;153;27486;-76
2023/05/09 09:17:40;;;;;;;7.20;6.60;;;26.80;60.40;;;;;;921486;153;27389;-76
2023/05/09 09:20:08;;;;;;;7.50;6.80;;;26.70;60.20;;;;;;923436;153;27353;-76
2023/05/09 09:22:34;;;;;;;6.60;6.12;;;26.70;60.30;;;;;;921640;152;27487;-76
2023/05/09 09:25:00;;;;;;;8.85;8.05;;;26.60;60.60;;;;;;921297;153;27451;-76
2023/05/09 09:27:27;;;;;;;7.78;6.97;;;26.50;60.70;;;;;;921459;153;27499;-76
2023/05/09 09:29:53;;;;;;;7.78;6.92;;;26.50;59.90;;;;;;923946;153;27370;-76
2023/05/09 09:32:21;;;;;;;7.37;6.67;;;26.50;60.60;;;;;;924601;153;27321;-76
2023/05/09 09:34:49;;;;;;;8.40;7.53;;;26.50;60.50;;;;;;922609;153;27354;-76
2023/05/09 09:37:22;;;;;;;7.17;6.50;;;26.50;60.40;;;;;;931003;151;27401;-76
2023/05/09 09:39:54;;;;;;;7.37;6.78;;;26.50;60.60;;;;;;930962;152;27341;-75
2023/05/09 09:42:22;;;;;;;7.35;6.75;;;26.50;60.70;;;;;;930300;151;27378;-76
2023/05/09 09:44:47;;;;;;;7.80;6.95;;;26.50;60.60;;;;;;930590;151;27486;-76
2023/05/09 09:47:14;;;;;;;7.33;6.72;;;26.60;60.50;;;;;;930266;151;27370;-76
2023/05/09 09:49:40;;;;;;;7.72;6.75;;;26.60;60.20;;;;;;931230;151;27333;-76
2023/05/09 09:52:07;;;;;;;7.37;6.75;;;26.60;60.00;;;;;;930681;151;27373;-76
2023/05/09 09:54:33;;;;;;;7.42;6.83;;;26.60;59.70;;;;;;931120;151;27448;-76
2023/05/09 09:57:00;;;;;;;6.97;6.37;;;26.50;59.60;;;;;;931695;153;27470;-76
2023/05/09 09:59:27;;;;;;;8.33;7.30;;;26.40;59.50;;;;;;931198;153;27915;-76
2023/05/09 10:01:59;;;;;;;6.70;6.12;;;26.30;59.50;;;;;;931275;153;27302;-76
2023/05/09 10:04:26;;;;;;;7.53;6.70;;;26.20;59.60;;;;;;930365;151;27475;-76
2023/05/09 10:06:55;;;;;;;7.33;6.37;;;26.10;59.60;;;;;;930617;153;27450;-76
2023/05/09 10:09:22;;;;;;;7.67;6.87;;;26.00;59.60;;;;;;930917;153;27426;-76
2023/05/09 10:11:49;;;;;;;7.72;7.03;;;25.90;59.60;;;;;;930108;151;27340;-76
2023/05/09 10:14:15;;;;;;;6.80;6.28;;;25.80;59.70;;;;;;930952;151;27317;-76
2023/05/09 10:16:41;;;;;;;7.08;6.42;;;25.60;59.90;;;;;;930913;151;27390;-76
2023/05/09 10:19:08;;;;;;;7.53;6.92;;;25.50;60.00;;;;;;931025;152;27730;-76
2023/05/09 10:21:35;;;;;;;8.23;6.62;;;25.40;60.10;;;;;;931691;152;27369;-76
2023/05/09 10:24:01;;;;;;;7.20;6.35;;;25.30;60.10;;;;;;930498;152;27805;-76
2023/05/09 10:26:30;;;;;;;7.28;5.70;;;25.20;60.30;;;;;;931539;152;27300;-76
2023/05/09 10:28:54;;;;;;;6.35;5.80;;;25.20;60.80;;;;;;930342;152;27382;-76
2023/05/09 10:31:27;;;;;;;6.62;6.03;;;25.20;61.00;;;;;;931045;151;27381;-76
2023/05/09 10:33:54;;;;;;;6.40;5.85;;;25.20;60.50;;;;;;930953;151;27283;-76
2023/05/09 10:36:20;;;;;;;8.50;6.35;;;25.20;61.30;;;;;;931277;153;27338;-76
2023/05/09 10:38:49;;;;;;;6.58;5.92;;;25.30;61.30;;;;;;931161;152;27393;-76
2023/05/09 10:41:17;;;;;;;6.85;6.15;;;25.40;61.30;;;;;;930987;152;27385;-76
2023/05/09 10:43:43;;;;;;;6.67;6.15;;;25.40;61.00;;;;;;930760;152;27269;-76
2023/05/09 10:46:09;;;;;;;6.58;6.08;;;25.50;61.00;;;;;;931431;152;27453;-76
2023/05/09 10:48:36;;;;;;;5.62;5.20;;;25.60;61.10;;;;;;931513;151;27466;-76
2023/05/09 10:51:02;;;;;;;6.25;5.60;;;25.70;61.00;;;;;;931338;153;27397;-76
2023/05/09 10:53:47;;;;;;;5.58;5.17;;;25.80;60.80;;;;;;930544;153;27407;-76
2023/05/09 10:56:28;;;;;;;5.90;5.40;;;25.90;60.70;;;;;;930439;152;27408;-76
2023/05/09 10:58:55;;;;;;;5.50;5.00;;;26.10;60.80;;;;;;930061;152;27343;-76
2023/05/09 11:01:33;;;;;;;6.12;5.62;;;26.30;60.80;;;;;;931031;151;27489;-76
2023/05/09 11:03:57;;;;;;;6.05;5.55;;;26.50;60.60;;;;;;917049;152;27474;-76
2023/05/09 11:06:49;;;;;;;5.83;5.35;;;26.70;60.40;;;;;;921793;153;27510;-76
2023/05/09 11:09:33;;;;;;;6.25;5.65;;;26.90;59.80;;;;;;921272;153;27455;-76
2023/05/09 11:12:08;;;;;;;5.72;5.33;;;27.10;59.60;;;;;;926261;152;27344;-76
2023/05/09 11:14:40;;;;;;;6.25;5.65;;;27.30;59.30;;;;;;927802;151;27371;-76
2023/05/09 11:17:07;;;;;;;5.58;5.08;;;27.50;59.00;;;;;;918907;152;27312;-76
2023/05/09 11:19:37;;;;;;;6.10;5.60;;;27.70;58.50;;;;;;912944;155;27777;-76
2023/05/09 11:22:21;;;;;;;5.40;4.72;;;27.80;57.90;;;;;;916823;152;27492;-76
2023/05/09 11:24:47;;;;;;;4.47;4.10;;;28.00;57.80;;;;;;922391;153;27785;-76
2023/05/09 11:27:14;;;;;;;5.17;4.78;;;28.10;57.90;;;;;;925792;152;27327;-76
2023/05/09 11:29:43;;;;;;;5.53;5.12;;;28.20;57.40;;;;;;913096;154;27293;-76
2023/05/09 11:32:10;;;;;;;5.22;4.83;;;28.30;56.80;;;;;;916070;152;27501;-76
2023/05/09 11:34:37;;;;;;;4.78;4.40;;;28.40;56.40;;;;;;938835;151;27322;-76
2023/05/09 11:37:06;;;;;;;5.03;4.62;;;28.50;56.10;;;;;;946212;148;27469;-76
2023/05/09 11:39:33;;;;;;;8.10;5.03;;;28.50;55.80;;;;;;951002;148;27432;-76
2023/05/09 11:41:59;;;;;;;3.85;3.55;;;28.50;55.60;;;;;;931597;151;27374;-76
2023/05/09 11:44:26;;;;;;;4.72;4.33;;;28.50;55.80;;;;;;935576;150;27318;-76
2023/05/09 11:46:52;;;;;;;4.10;3.80;;;28.50;55.70;;;;;;928282;150;27354;-76
2023/05/09 11:49:19;;;;;;;4.62;4.25;;;28.50;55.40;;;;;;930147;150;27352;-76
2023/05/09 11:51:45;;;;;;;3.85;3.55;;;28.60;55.10;;;;;;934603;151;27378;-76
2023/05/09 11:54:13;;;;;;;4.85;4.40;;;28.60;54.80;;;;;;935845;150;27584;-76
2023/05/09 11:56:39;;;;;;;6.67;4.25;;;28.60;54.70;;;;;;951731;147;27362;-76
2023/05/09 11:59:06;;;;;;;6.75;4.20;;;28.60;54.50;;;;;;938779;150;27332;-76
2023/05/09 12:01:32;;;;;;;3.67;3.37;;;28.50;54.20;;;;;;933214;151;27321;-76
2023/05/09 12:03:59;;;;;;;3.40;3.20;;;28.50;54.20;;;;;;932299;151;27390;-76
2023/05/09 12:06:25;;;;;;;3.75;3.30;;;28.50;54.50;;;;;;949721;148;27441;-76
2023/05/09 12:08:52;;;;;;;6.08;3.67;;;28.50;54.30;;;;;;949245;148;27356;-76
2023/05/09 12:11:18;;;;;;;4.78;4.28;;;28.50;54.30;;;;;;949339;151;27250;-76
2023/05/09 12:13:47;;;;;;;3.60;3.30;;;28.50;54.00;;;;;;949269;151;27353;-76
2023/05/09 12:16:14;;;;;;;3.35;3.15;;;28.50;53.70;;;;;;931714;151;27303;-76
2023/05/09 12:18:44;;;;;;;4.47;3.77;;;28.50;53.60;;;;;;951414;148;27265;-76
2023/05/09 12:21:11;;;;;;;4.10;3.42;;;28.50;53.60;;;;;;951198;148;27369;-76
2023/05/09 12:23:37;;;;;;;4.12;3.77;;;28.40;53.50;;;;;;951863;148;27360;-76
2023/05/09 12:26:04;;;;;;;4.30;4.00;;;28.40;53.40;;;;;;951897;147;27463;-76
2023/05/09 12:28:30;;;;;;;4.33;4.03;;;28.30;53.10;;;;;;949456;148;27390;-76
2023/05/09 12:30:57;;;;;;;3.65;3.35;;;28.20;53.00;;;;;;949411;151;27433;-76
2023/05/09 12:33:23;;;;;;;3.77;3.47;;;28.10;53.10;;;;;;949805;148;27395;-76
2023/05/09 12:35:50;;;;;;;3.50;3.20;;;28.00;53.20;;;;;;952307;148;27371;-76
2023/05/09 12:38:23;;;;;;;3.37;3.17;;;28.00;53.40;;;;;;912351;151;27471;-76
2023/05/09 12:41:00;;;;;;;3.40;3.20;;;27.90;53.50;;;;;;935111;150;27307;-76